Time;durP1;ratioP1;P1;durP2;ratioP2;P2;SDS_P1;SDS_P2;PMS_P1;PMS_P2;Temp;Humidity;BMP_temperature;BMP_pressure;BME280_temperature;BME280_humidity;BME280_pressure;Samples;Min_cycle;Max_cycle;Signal;HPM_P1;HPM_P2
2022/09/23 00:01:29;;;;;;;5.40;5.00;;;10.50;99.90;;;;;;4974576;28;20459;-63
2022/09/23 00:03:58;;;;;;;7.37;5.40;;;10.50;99.90;;;;;;4974758;28;20533;-63
2022/09/23 00:06:26;;;;;;;5.03;4.63;;;10.50;99.90;;;;;;4974605;28;20992;-63
2022/09/23 00:08:54;;;;;;;5.13;4.83;;;10.50;99.90;;;;;;4975064;28;20886;-63
2022/09/23 00:11:23;;;;;;;5.10;4.70;;;10.50;99.90;;;;;;4974899;28;20478;-63
2022/09/23 00:13:51;;;;;;;5.90;5.17;;;10.50;99.90;;;;;;4974575;28;20880;-63
2022/09/23 00:16:21;;;;;;;5.43;5.10;;;10.50;99.90;;;;;;4974919;28;20856;-64
2022/09/23 00:18:49;;;;;;;6.73;4.80;;;10.50;99.90;;;;;;4975054;28;20465;-64
2022/09/23 00:21:17;;;;;;;5.97;5.50;;;10.40;99.90;;;;;;4978808;28;20541;-65
2022/09/23 00:23:44;;;;;;;5.10;4.80;;;10.40;99.90;;;;;;4978380;28;20478;-64
2022/09/23 00:26:14;;;;;;;5.27;4.97;;;10.40;99.90;;;;;;4978435;28;20454;-64
2022/09/23 00:28:42;;;;;;;5.13;4.63;;;10.40;99.90;;;;;;4979401;28;20553;-64
2022/09/23 04:01:26;;;;;;;8.47;7.80;;;8.50;99.90;;;;;;5505703;23;20496;-62
2022/09/23 04:03:53;;;;;;;8.93;8.27;;;8.50;99.90;;;;;;4978639;28;20501;-62
2022/09/23 04:06:20;;;;;;;9.47;8.53;;;8.40;99.90;;;;;;4978886;28;20458;-63
2022/09/23 04:08:47;;;;;;;9.30;8.50;;;8.40;99.90;;;;;;4978828;28;20505;-63
2022/09/23 04:11:14;;;;;;;9.20;8.50;;;8.40;99.90;;;;;;4978927;28;20566;-63
2022/09/23 04:13:40;;;;;;;9.47;8.77;;;8.40;99.90;;;;;;4978731;28;20454;-62
2022/09/23 04:16:07;;;;;;;10.10;9.30;;;8.30;99.90;;;;;;4978660;28;20446;-62
2022/09/23 04:18:35;;;;;;;9.90;9.20;;;8.30;99.90;;;;;;4978740;28;20454;-62
2022/09/23 04:21:01;;;;;;;9.03;8.33;;;8.30;99.90;;;;;;4978603;28;20946;-62
2022/09/23 04:23:28;;;;;;;9.37;8.67;;;8.30;99.90;;;;;;4978795;28;20463;-63
2022/09/23 04:25:55;;;;;;;10.27;9.33;;;8.20;99.90;;;;;;4979299;28;20458;-62
2022/09/23 04:28:22;;;;;;;10.03;9.13;;;8.20;99.90;;;;;;4979103;28;20820;-62
2022/09/23 04:30:49;;;;;;;11.40;10.40;;;8.20;99.90;;;;;;4978738;28;20530;-63
2022/09/23 04:33:16;;;;;;;10.10;9.37;;;8.20;99.90;;;;;;4979125;28;20482;-62
2022/09/23 04:35:44;;;;;;;10.50;9.50;;;8.20;99.90;;;;;;4978864;28;20458;-63
2022/09/23 04:38:12;;;;;;;10.47;9.40;;;8.10;99.90;;;;;;4978477;28;20521;-63
2022/09/23 04:40:38;;;;;;;10.00;9.20;;;8.20;99.90;;;;;;4978440;28;20535;-62
2022/09/23 04:43:05;;;;;;;9.67;8.97;;;8.10;99.90;;;;;;4978526;28;20509;-62
2022/09/23 04:45:32;;;;;;;10.27;9.43;;;8.10;99.90;;;;;;4978262;28;20835;-62
2022/09/23 04:47:58;;;;;;;9.13;8.43;;;8.10;99.90;;;;;;4978138;28;20790;-63
2022/09/23 04:50:25;;;;;;;10.10;9.20;;;8.10;99.90;;;;;;4978191;28;20520;-62
2022/09/23 04:52:54;;;;;;;9.80;9.10;;;8.10;99.90;;;;;;4978291;28;20478;-63
2022/09/23 04:55:21;;;;;;;9.20;8.50;;;8.10;99.90;;;;;;4977860;28;20938;-62
2022/09/23 04:57:48;;;;;;;9.07;8.40;;;8.10;99.90;;;;;;4978270;28;20454;-63
2022/09/23 05:00:15;;;;;;;9.33;8.43;;;8.10;99.90;;;;;;4977775;28;20458;-63
2022/09/23 05:02:43;;;;;;;9.60;8.80;;;8.10;99.90;;;;;;4978127;28;20435;-62
2022/09/23 05:05:10;;;;;;;8.83;8.23;;;8.10;99.90;;;;;;4978152;28;20858;-63
2022/09/23 05:07:36;;;;;;;9.37;8.67;;;8.10;99.90;;;;;;4978059;28;20854;-62
2022/09/23 05:10:05;;;;;;;10.80;9.80;;;8.10;99.90;;;;;;4977663;28;21012;-63
2022/09/23 05:12:32;;;;;;;11.00;10.00;;;8.10;99.90;;;;;;4977899;28;20479;-62
2022/09/23 05:14:59;;;;;;;9.87;9.17;;;8.10;99.90;;;;;;4977618;28;20451;-63
2022/09/23 05:17:28;;;;;;;9.83;9.00;;;8.10;99.90;;;;;;4977582;28;20462;-62
2022/09/23 05:19:56;;;;;;;11.07;9.97;;;8.20;99.90;;;;;;4977801;28;20895;-62
2022/09/23 05:22:23;;;;;;;10.80;9.80;;;8.10;99.90;;;;;;4977327;28;21044;-62
2022/09/23 05:24:50;;;;;;;10.50;9.60;;;8.20;99.90;;;;;;4977992;28;20458;-62
2022/09/23 05:27:18;;;;;;;11.10;10.03;;;8.20;99.90;;;;;;4977662;28;20497;-63
2022/09/23 05:29:46;;;;;;;11.10;10.10;;;8.20;99.90;;;;;;4977409;28;20479;-62
2022/09/23 05:32:13;;;;;;;12.03;10.93;;;8.20;99.90;;;;;;4977406;28;20820;-62
2022/09/23 05:34:40;;;;;;;15.77;11.10;;;8.20;99.90;;;;;;4977559;28;20915;-63
2022/09/23 05:37:06;;;;;;;13.37;11.00;;;8.20;99.90;;;;;;4977849;28;20455;-62
2022/09/23 05:39:33;;;;;;;12.13;11.10;;;8.20;99.90;;;;;;4978436;28;20458;-63
2022/09/23 05:42:00;;;;;;;11.03;10.13;;;8.30;99.90;;;;;;4977575;28;20467;-62
2022/09/23 05:44:28;;;;;;;11.83;10.73;;;8.30;99.90;;;;;;4977560;28;20509;-63
2022/09/23 05:46:54;;;;;;;12.20;11.10;;;8.30;99.90;;;;;;4978688;28;20490;-62
2022/09/23 05:49:21;;;;;;;13.67;10.20;;;8.40;99.90;;;;;;4978693;28;20454;-62
2022/09/23 05:51:48;;;;;;;11.60;10.60;;;8.40;99.90;;;;;;4979429;28;20541;-62
2022/09/23 05:54:14;;;;;;;12.20;11.00;;;8.40;99.90;;;;;;4979727;28;20850;-62
2022/09/23 05:56:41;;;;;;;11.47;10.37;;;8.30;99.90;;;;;;4979229;28;20788;-63
2022/09/23 05:59:08;;;;;;;10.90;10.00;;;8.40;99.90;;;;;;4979412;28;20854;-63
2022/09/23 06:01:37;;;;;;;11.17;10.10;;;8.40;99.90;;;;;;4977661;28;20514;-63
2022/09/23 06:04:06;;;;;;;12.00;10.90;;;8.50;99.90;;;;;;4977409;28;20454;-62
2022/09/23 06:06:35;;;;;;;11.60;10.57;;;8.60;99.90;;;;;;4977631;28;20451;-62
2022/09/23 06:09:03;;;;;;;12.40;11.03;;;8.60;99.90;;;;;;4978104;28;20446;-63
2022/09/23 06:11:31;;;;;;;11.80;10.60;;;8.60;99.90;;;;;;4977644;28;20622;-63
2022/09/23 06:13:59;;;;;;;11.10;10.00;;;8.70;99.90;;;;;;4977854;28;20461;-63
2022/09/23 06:16:26;;;;;;;10.53;9.60;;;8.90;99.90;;;;;;4977060;28;20883;-63
2022/09/23 06:18:54;;;;;;;9.07;8.27;;;9.20;99.90;;;;;;4977463;28;20455;-62
2022/09/23 06:21:21;;;;;;;8.10;7.50;;;9.70;99.90;;;;;;4977122;28;20993;-62
2022/09/23 06:23:48;;;;;;;8.23;7.40;;;10.40;99.90;;;;;;4977328;28;20557;-63
2022/09/23 06:26:16;;;;;;;7.53;7.00;;;11.00;99.90;;;;;;4976770;28;20465;-63
2022/09/23 06:28:44;;;;;;;11.70;6.90;;;11.60;99.90;;;;;;4978192;28;20461;-62
2022/09/23 06:31:14;;;;;;;9.53;7.30;;;12.20;99.90;;;;;;4978007;28;20573;-62
2022/09/23 06:33:40;;;;;;;10.90;6.37;;;12.70;99.90;;;;;;4978515;28;20478;-62
2022/09/23 06:36:10;;;;;;;7.23;6.63;;;13.30;99.90;;;;;;4977693;28;20513;-62
2022/09/23 06:38:39;;;;;;;7.50;6.80;;;13.90;99.90;;;;;;4977316;28;20454;-63
2022/09/23 06:41:06;;;;;;;8.80;7.30;;;14.40;99.90;;;;;;4976947;28;20487;-63
2022/09/23 06:43:32;;;;;;;7.97;7.17;;;14.70;99.90;;;;;;4978249;28;20953;-62
2022/09/23 06:46:02;;;;;;;7.47;6.97;;;15.00;99.90;;;;;;4977104;28;20458;-63
2022/09/23 06:48:29;;;;;;;7.60;6.70;;;15.30;99.90;;;;;;4976889;28;20458;-63
2022/09/23 06:51:01;;;;;;;7.83;6.83;;;15.80;99.90;;;;;;4976681;28;20836;-62
2022/09/23 06:53:30;;;;;;;6.83;6.23;;;16.30;99.90;;;;;;4976009;28;21068;-63
2022/09/23 06:56:01;;;;;;;6.73;6.13;;;16.60;99.90;;;;;;4976143;28;20454;-62
2022/09/23 06:58:28;;;;;;;7.33;6.47;;;16.60;99.90;;;;;;4975852;28;20439;-62
2022/09/23 07:01:01;;;;;;;7.90;6.40;;;16.50;99.90;;;;;;4975224;28;20485;-62
2022/09/23 07:03:28;;;;;;;7.53;6.50;;;16.60;99.90;;;;;;4975809;28;20445;-62
2022/09/23 07:05:54;;;;;;;8.23;6.10;;;16.70;99.90;;;;;;4976012;28;20462;-63
2022/09/23 07:08:21;;;;;;;7.53;6.77;;;16.90;99.90;;;;;;4975614;28;20458;-63
2022/09/23 07:10:52;;;;;;;6.83;6.30;;;17.20;99.90;;;;;;4975836;28;20483;-63
2022/09/23 07:13:19;;;;;;;7.83;5.37;;;17.40;99.90;;;;;;4975730;28;20469;-62
2022/09/23 07:15:49;;;;;;;7.97;6.53;;;17.70;99.90;;;;;;4975658;28;20512;-63
2022/09/23 07:18:16;;;;;;;7.27;6.57;;;18.10;98.90;;;;;;4975440;28;20443;-63
2022/09/23 07:20:43;;;;;;;7.47;6.83;;;18.30;98.70;;;;;;4975276;28;20835;-63
2022/09/23 07:23:09;;;;;;;6.63;5.93;;;18.70;98.50;;;;;;4975188;28;20988;-62
2022/09/23 07:25:36;;;;;;;6.80;5.87;;;19.20;96.10;;;;;;4975444;28;20556;-63
2022/09/23 07:28:04;;;;;;;6.73;6.13;;;19.60;93.70;;;;;;4975320;28;20446;-63
2022/09/23 07:30:31;;;;;;;6.10;5.50;;;19.80;92.60;;;;;;4974528;28;20594;-63
2022/09/23 07:32:57;;;;;;;5.70;5.30;;;20.10;92.20;;;;;;4975813;28;20474;-63
2022/09/23 07:35:26;;;;;;;9.17;6.20;;;20.30;92.20;;;;;;4975485;28;20459;-63
2022/09/23 07:37:53;;;;;;;5.63;5.13;;;20.40;91.30;;;;;;4975022;28;20954;-62
2022/09/23 07:40:20;;;;;;;5.50;5.10;;;20.50;87.80;;;;;;4974760;28;20783;-63
2022/09/23 07:42:46;;;;;;;6.33;5.07;;;20.60;87.80;;;;;;4975367;28;20451;-63
2022/09/23 07:45:15;;;;;;;6.30;5.80;;;20.90;88.30;;;;;;4975244;28;20467;-62
2022/09/23 07:47:41;;;;;;;5.63;5.23;;;21.00;88.40;;;;;;4975222;28;20463;-62
2022/09/23 07:50:10;;;;;;;7.23;5.50;;;21.00;85.50;;;;;;4975407;28;20559;-62
2022/09/23 07:52:37;;;;;;;5.90;5.40;;;20.70;84.50;;;;;;4975245;28;20495;-63
2022/09/23 07:55:05;;;;;;;5.57;4.77;;;20.60;85.70;;;;;;4975275;28;20447;-62
2022/09/23 07:57:33;;;;;;;6.10;5.60;;;20.50;86.50;;;;;;4975119;28;20454;-62
2022/09/23 08:00:00;;;;;;;7.03;5.23;;;20.40;86.80;;;;;;4975229;28;20534;-62
2022/09/23 08:02:28;;;;;;;6.37;5.50;;;20.30;87.30;;;;;;4974805;28;20565;-62
2022/09/23 08:04:55;;;;;;;6.13;5.63;;;19.90;87.50;;;;;;4975047;28;20485;-63
2022/09/23 08:07:22;;;;;;;5.30;4.90;;;19.90;90.10;;;;;;4974975;28;20494;-62
2022/09/23 08:09:48;;;;;;;4.40;4.00;;;19.70;89.20;;;;;;4974875;28;20463;-62
2022/09/23 08:12:17;;;;;;;5.30;4.80;;;19.60;89.10;;;;;;4974790;28;20538;-63
2022/09/23 08:14:44;;;;;;;4.23;4.03;;;19.20;88.50;;;;;;4975393;28;20829;-62
2022/09/23 08:17:11;;;;;;;4.70;4.30;;;19.10;88.90;;;;;;4975644;28;20458;-62
2022/09/23 08:19:40;;;;;;;5.33;3.90;;;18.80;88.90;;;;;;4974946;28;20471;-62
2022/09/23 08:22:06;;;;;;;4.60;4.20;;;18.60;89.00;;;;;;4974752;28;20553;-62
2022/09/23 08:24:33;;;;;;;4.43;4.13;;;18.30;88.60;;;;;;4974933;28;20754;-62
2022/09/23 08:27:00;;;;;;;4.80;3.80;;;18.10;88.20;;;;;;4974796;28;20455;-61
2022/09/23 08:29:26;;;;;;;4.63;3.80;;;18.00;90.00;;;;;;4974749;28;20455;-61
2022/09/23 08:31:54;;;;;;;5.23;3.80;;;17.90;90.10;;;;;;4974758;28;20589;-61
2022/09/23 08:34:22;;;;;;;4.57;4.17;;;18.00;90.20;;;;;;4974536;28;20478;-62
2022/09/23 08:36:51;;;;;;;3.90;3.60;;;17.90;90.10;;;;;;4974487;28;20517;-61
2022/09/23 08:39:19;;;;;;;3.50;3.30;;;17.80;90.10;;;;;;4974568;28;20461;-61
2022/09/23 08:41:58;;;;;;;3.87;3.53;;;18.00;90.50;;;;;;4977295;28;20569;-62
2022/09/23 08:44:31;;;;;;;4.57;3.87;;;18.10;89.50;;;;;;4978064;28;20447;-62
2022/09/23 08:47:10;;;;;;;3.50;3.20;;;18.00;88.40;;;;;;4978276;28;20434;-61
2022/09/23 08:49:41;;;;;;;4.50;4.20;;;17.90;88.80;;;;;;4978342;28;20461;-61
2022/09/23 08:52:17;;;;;;;5.60;4.20;;;18.00;90.10;;;;;;4978522;28;20495;-61
2022/09/23 08:54:44;;;;;;;6.77;3.40;;;18.30;90.40;;;;;;4977543;28;20915;-62
2022/09/23 08:57:35;;;;;;;4.40;4.00;;;18.60;88.90;;;;;;4977903;28;20443;-62
2022/09/23 09:00:02;;;;;;;3.77;3.57;;;18.90;89.10;;;;;;4977816;28;20443;-61
2022/09/23 09:02:32;;;;;;;5.23;4.33;;;19.30;89.00;;;;;;4977379;28;20569;-62
2022/09/23 09:05:05;;;;;;;4.20;3.57;;;19.70;86.50;;;;;;4977516;28;20521;-62
2022/09/23 09:07:35;;;;;;;4.03;3.73;;;20.10;85.20;;;;;;4977698;28;20443;-62
2022/09/23 09:10:09;;;;;;;3.77;3.57;;;20.40;84.50;;;;;;4977654;28;20505;-62
2022/09/23 09:12:42;;;;;;;4.90;4.10;;;20.50;83.60;;;;;;4977408;28;20478;-62
2022/09/23 09:15:13;;;;;;;3.50;3.30;;;20.50;81.00;;;;;;4978047;28;20443;-62
2022/09/23 09:17:48;;;;;;;3.37;3.17;;;20.60;82.00;;;;;;4977195;28;20942;-62
2022/09/23 09:20:29;;;;;;;5.17;4.77;;;20.70;82.50;;;;;;4977259;28;20446;-62
2022/09/23 09:22:59;;;;;;;4.50;4.13;;;20.90;81.00;;;;;;4977741;28;20435;-62
2022/09/23 09:25:42;;;;;;;4.43;4.13;;;21.10;78.00;;;;;;4978001;28;20513;-62
2022/09/23 09:28:15;;;;;;;4.33;4.03;;;21.30;77.80;;;;;;4977244;28;20502;-61
2022/09/23 09:30:43;;;;;;;5.40;3.83;;;21.60;78.00;;;;;;4977893;28;20482;-62
2022/09/23 09:33:16;;;;;;;5.13;3.60;;;21.90;75.60;;;;;;4977536;28;20545;-62
2022/09/23 09:36:08;;;;;;;3.77;3.47;;;22.30;76.80;;;;;;4977503;28;20450;-61
2022/09/23 09:38:36;;;;;;;3.40;3.10;;;22.70;74.50;;;;;;4976658;28;20455;-62
2022/09/23 09:41:13;;;;;;;4.33;3.77;;;23.20;70.60;;;;;;4977136;28;20562;-62
2022/09/23 09:43:40;;;;;;;4.90;3.30;;;23.50;70.80;;;;;;4977369;28;20469;-62
2022/09/23 09:46:23;;;;;;;3.63;3.40;;;23.70;71.70;;;;;;4977326;28;20513;-63
2022/09/23 09:48:56;;;;;;;3.43;3.23;;;24.00;68.80;;;;;;4976698;28;20442;-62
2022/09/23 09:51:24;;;;;;;3.97;3.77;;;24.40;68.40;;;;;;4977098;28;20479;-62
2022/09/23 09:53:52;;;;;;;3.80;3.50;;;24.70;68.20;;;;;;4976388;28;21024;-62
2022/09/23 09:56:25;;;;;;;4.00;3.67;;;25.00;64.50;;;;;;4976948;28;20458;-62
2022/09/23 09:58:55;;;;;;;3.33;3.13;;;25.40;64.50;;;;;;4976817;28;20450;-62
2022/09/23 10:01:23;;;;;;;3.53;3.23;;;25.90;63.10;;;;;;4976741;28;20487;-62
2022/09/23 10:03:52;;;;;;;4.67;3.13;;;26.30;61.80;;;;;;4976861;28;20451;-62
2022/09/23 10:06:22;;;;;;;4.27;3.40;;;26.50;61.60;;;;;;4976552;28;20458;-62
2022/09/23 10:09:15;;;;;;;4.07;3.77;;;27.00;59.20;;;;;;4976497;28;20956;-63
2022/09/23 10:11:45;;;;;;;3.80;3.20;;;27.30;60.80;;;;;;4976719;28;20470;-62
2022/09/23 10:14:16;;;;;;;3.37;3.17;;;27.80;58.60;;;;;;4976993;28;20842;-63
2022/09/23 10:16:43;;;;;;;3.47;3.20;;;28.40;57.50;;;;;;4977083;28;20443;-63
2022/09/23 10:19:18;;;;;;;3.93;3.63;;;28.90;56.10;;;;;;4976474;28;21011;-62
2022/09/23 10:21:51;;;;;;;4.97;3.60;;;29.30;56.00;;;;;;4977041;28;20524;-62
2022/09/23 10:24:22;;;;;;;3.73;3.53;;;29.50;53.80;;;;;;4976939;28;20495;-62
2022/09/23 10:26:56;;;;;;;3.67;3.47;;;28.80;53.60;;;;;;4976519;28;20446;-62
2022/09/23 10:29:28;;;;;;;4.10;3.80;;;28.80;53.50;;;;;;4976517;28;20525;-62
2022/09/23 10:32:17;;;;;;;4.10;3.80;;;28.40;54.00;;;;;;4976543;28;20474;-62
2022/09/23 10:34:46;;;;;;;4.37;3.97;;;27.70;55.90;;;;;;4976232;28;20483;-62
2022/09/23 10:37:18;;;;;;;4.00;3.70;;;27.60;57.20;;;;;;4976169;28;20505;-62
2022/09/23 10:48:26;;;;;;;5.03;4.30;;;28.60;54.40;;;;;;4976348;28;20853;-62
2022/09/23 10:50:55;;;;;;;5.40;4.43;;;28.60;54.40;;;;;;4976319;28;20525;-63
2022/09/23 10:53:34;;;;;;;5.77;4.17;;;28.20;56.80;;;;;;4976405;28;20819;-62
2022/09/23 10:56:24;;;;;;;4.90;4.40;;;28.20;55.20;;;;;;4976172;28;20494;-62
2022/09/23 10:59:30;;;;;;;5.03;4.47;;;28.00;55.40;;;;;;4976078;28;20435;-62
2022/09/23 11:02:12;;;;;;;4.70;4.30;;;27.50;55.30;;;;;;4975468;28;20989;-63
2022/09/23 11:05:07;;;;;;;4.77;4.37;;;26.70;58.70;;;;;;4976733;28;20489;-62
2022/09/23 11:07:38;;;;;;;4.50;4.10;;;26.50;59.60;;;;;;4975913;28;20497;-62
2022/09/23 11:10:31;;;;;;;4.00;3.70;;;26.40;58.80;;;;;;4975870;28;20443;-63
2022/09/23 11:13:06;;;;;;;4.93;3.87;;;26.30;61.00;;;;;;4975637;28;20439;-63
2022/09/23 11:15:47;;;;;;;4.40;4.00;;;25.90;59.40;;;;;;4975562;28;20443;-62
2022/09/23 11:18:42;;;;;;;4.73;4.00;;;25.80;63.20;;;;;;4975627;28;20449;-62
2022/09/23 11:21:40;;;;;;;6.33;4.93;;;25.80;63.90;;;;;;4976304;28;20470;-61
2022/09/23 11:24:39;;;;;;;4.77;4.37;;;25.70;60.80;;;;;;4975239;28;20981;-62
2022/09/23 11:27:19;;;;;;;4.33;3.97;;;25.40;61.90;;;;;;4975619;28;20501;-61
2022/09/23 11:30:07;;;;;;;6.90;4.20;;;25.10;62.20;;;;;;4975505;28;20446;-62
2022/09/23 11:33:00;;;;;;;6.00;4.27;;;24.90;61.60;;;;;;4975794;28;20467;-61
2022/09/23 11:35:31;;;;;;;6.10;4.17;;;24.70;61.80;;;;;;4976429;28;20989;-62
2022/09/23 11:38:04;;;;;;;4.40;4.10;;;24.70;62.70;;;;;;4977062;28;20438;-63
2022/09/23 11:40:32;;;;;;;5.73;3.40;;;24.90;62.50;;;;;;4975701;28;20835;-62
2022/09/23 11:43:06;;;;;;;10.37;8.33;;;24.90;62.30;;;;;;4975509;28;20959;-62
2022/09/23 11:45:39;;;;;;;8.37;7.67;;;25.00;67.70;;;;;;4975471;28;20538;-61
2022/09/23 11:48:12;;;;;;;8.60;7.80;;;25.10;65.50;;;;;;4975509;28;20439;-62
2022/09/23 11:50:46;;;;;;;6.17;5.57;;;25.10;68.10;;;;;;4975435;28;20478;-63
2022/09/23 11:53:20;;;;;;;5.60;5.10;;;25.10;64.20;;;;;;4976219;28;20525;-61
2022/09/23 11:55:52;;;;;;;4.67;4.27;;;24.80;64.60;;;;;;4975412;28;20443;-62
2022/09/23 11:58:23;;;;;;;5.40;4.33;;;24.70;66.40;;;;;;4975421;28;20516;-62
2022/09/23 12:00:58;;;;;;;4.30;3.90;;;24.80;63.80;;;;;;4975205;28;21002;-61
2022/09/23 12:03:34;;;;;;;6.03;3.70;;;24.90;65.30;;;;;;4975231;28;20476;-63
2022/09/23 12:06:05;;;;;;;3.70;3.50;;;25.00;62.70;;;;;;4975559;28;20517;-61
2022/09/23 12:08:35;;;;;;;7.73;3.97;;;25.10;66.60;;;;;;4975152;28;20438;-62
2022/09/23 12:11:08;;;;;;;5.73;3.90;;;25.00;64.10;;;;;;4974613;28;20974;-62
2022/09/23 12:13:44;;;;;;;4.70;4.30;;;24.90;64.40;;;;;;4974906;28;20463;-61
2022/09/23 12:16:34;;;;;;;4.50;4.10;;;24.90;61.90;;;;;;4977571;28;20501;-62
2022/09/23 12:19:12;;;;;;;4.17;3.87;;;24.80;63.30;;;;;;4978925;28;20478;-62
2022/09/23 12:21:51;;;;;;;4.77;4.33;;;24.90;63.50;;;;;;4978532;28;20474;-62
2022/09/23 12:24:41;;;;;;;4.27;3.83;;;25.00;64.30;;;;;;4978582;28;20439;-62
2022/09/23 12:27:17;;;;;;;6.10;4.40;;;24.80;63.60;;;;;;4976822;28;20490;-62
2022/09/23 12:29:52;;;;;;;5.23;4.83;;;24.70;63.40;;;;;;4979551;28;20447;-63
2022/09/23 12:32:20;;;;;;;5.67;4.50;;;24.50;62.80;;;;;;4978756;28;20474;-62
2022/09/23 12:34:50;;;;;;;4.30;3.90;;;24.40;60.90;;;;;;4978322;28;20475;-63
2022/09/23 12:37:25;;;;;;;5.73;4.63;;;24.30;65.00;;;;;;4978370;28;20454;-61
2022/09/23 12:39:52;;;;;;;5.97;3.70;;;24.20;66.20;;;;;;4977932;28;20525;-62
2022/09/23 12:42:22;;;;;;;3.63;3.43;;;24.20;64.40;;;;;;4978064;28;20549;-62
2022/09/23 12:44:49;;;;;;;4.00;3.47;;;24.40;66.30;;;;;;4978047;28;20455;-62
2022/09/23 12:47:39;;;;;;;4.80;3.77;;;24.50;67.30;;;;;;4977722;28;20958;-62
2022/09/23 12:50:44;;;;;;;4.87;4.10;;;24.40;66.00;;;;;;4977503;28;21021;-62
2022/09/23 12:53:54;;;;;;;7.60;3.93;;;24.50;65.50;;;;;;4977780;28;20462;-61
2022/09/23 12:56:24;;;;;;;4.10;3.70;;;24.50;67.20;;;;;;4977554;28;20438;-62
2022/09/23 12:59:09;;;;;;;4.00;3.70;;;24.50;65.20;;;;;;4977508;28;20980;-62
2022/09/23 13:01:37;;;;;;;4.33;3.93;;;24.40;63.60;;;;;;4977239;28;20997;-62
2022/09/23 13:06:56;;;;;;;6.10;3.37;;;24.30;67.40;;;;;;4978088;28;20514;-62
2022/09/23 13:09:29;;;;;;;4.10;3.60;;;24.30;66.80;;;;;;4977693;28;20475;-62
2022/09/23 13:11:59;;;;;;;4.33;3.37;;;24.30;64.00;;;;;;4977622;28;20537;-62
2022/09/23 13:14:28;;;;;;;2.93;2.73;;;24.30;64.50;;;;;;4977725;28;20467;-62
2022/09/23 13:16:57;;;;;;;3.30;3.00;;;24.00;64.70;;;;;;4977433;28;20459;-62
2022/09/23 13:19:46;;;;;;;3.43;3.10;;;23.90;63.50;;;;;;4977380;28;20454;-62
2022/09/23 13:22:13;;;;;;;5.80;3.60;;;23.90;62.90;;;;;;4977353;28;20474;-62
2022/09/23 13:24:45;;;;;;;3.57;3.20;;;24.00;65.00;;;;;;4977400;28;20486;-62
2022/09/23 13:27:19;;;;;;;3.70;3.50;;;24.10;68.90;;;;;;4976156;28;20541;-62
2022/09/23 13:29:51;;;;;;;3.47;3.27;;;24.20;65.00;;;;;;4977212;28;20442;-62
2022/09/23 13:32:19;;;;;;;3.77;3.33;;;24.20;63.20;;;;;;4978017;28;20478;-62
2022/09/23 13:34:56;;;;;;;4.67;3.53;;;24.20;61.60;;;;;;4977661;28;20495;-62
2022/09/23 13:37:24;;;;;;;4.77;3.07;;;24.00;63.90;;;;;;4977715;28;20773;-62
2022/09/23 13:39:51;;;;;;;5.43;3.70;;;23.80;64.30;;;;;;4977428;28;20455;-62
2022/09/23 13:42:26;;;;;;;4.13;3.07;;;23.70;65.50;;;;;;4977485;28;20478;-62
2022/09/23 13:44:56;;;;;;;5.20;3.50;;;23.50;68.30;;;;;;4977557;28;20441;-62
2022/09/23 13:47:23;;;;;;;7.63;3.77;;;23.40;67.70;;;;;;4977844;28;20461;-62
2022/09/23 13:49:52;;;;;;;3.40;3.17;;;23.20;67.20;;;;;;4977179;28;20458;-62
2022/09/23 13:52:25;;;;;;;4.50;4.20;;;23.10;69.10;;;;;;4976697;28;20510;-62
2022/09/23 13:54:52;;;;;;;4.17;3.77;;;23.10;69.00;;;;;;4976685;28;20473;-62
2022/09/23 13:57:26;;;;;;;4.40;3.73;;;23.10;69.70;;;;;;4976665;28;20454;-62
2022/09/23 13:59:53;;;;;;;4.67;3.80;;;23.10;68.70;;;;;;4977198;28;20865;-62
2022/09/23 14:02:24;;;;;;;9.00;4.60;;;23.10;67.80;;;;;;4976558;28;20539;-62
2022/09/23 14:04:55;;;;;;;4.70;4.30;;;23.10;69.30;;;;;;4977494;28;20759;-61
2022/09/23 14:07:22;;;;;;;4.10;3.90;;;23.00;69.60;;;;;;4976616;28;20465;-62
2022/09/23 14:09:52;;;;;;;4.73;4.23;;;22.90;69.40;;;;;;4976519;28;20462;-62
2022/09/23 14:12:21;;;;;;;9.57;4.67;;;22.90;70.90;;;;;;4976585;28;20483;-62
2022/09/23 14:14:49;;;;;;;5.87;3.80;;;23.00;69.40;;;;;;4976235;28;20837;-62
2022/09/23 14:17:19;;;;;;;4.97;4.57;;;23.20;72.30;;;;;;4976538;28;20449;-62
2022/09/23 14:19:46;;;;;;;8.57;4.23;;;23.30;73.30;;;;;;4976431;28;20833;-62
2022/09/23 14:22:24;;;;;;;5.40;4.40;;;23.50;69.60;;;;;;4975968;28;20824;-63
2022/09/23 14:24:52;;;;;;;3.77;3.57;;;23.60;69.30;;;;;;4976280;28;20489;-62
2022/09/23 14:27:26;;;;;;;5.30;4.30;;;23.70;70.20;;;;;;4976369;28;20467;-62
2022/09/23 14:29:53;;;;;;;4.90;4.50;;;23.70;70.00;;;;;;4976217;28;20910;-62
2022/09/23 14:32:23;;;;;;;4.97;4.53;;;23.70;69.70;;;;;;4976731;28;20831;-61
2022/09/23 14:34:52;;;;;;;5.37;4.83;;;23.60;69.10;;;;;;4978011;28;20561;-62
2022/09/23 14:40:18;;;;;;;6.30;3.70;;;23.60;70.50;;;;;;4976683;28;20899;-62
2022/09/23 14:42:48;;;;;;;4.60;4.20;;;23.50;72.60;;;;;;4976519;28;20501;-62
2022/09/23 14:45:18;;;;;;;5.17;4.63;;;23.50;71.60;;;;;;4976092;28;20907;-62
2022/09/23 14:47:49;;;;;;;7.23;4.33;;;23.50;71.40;;;;;;4976252;28;20863;-62
2022/09/23 14:50:38;;;;;;;8.20;4.87;;;23.50;71.30;;;;;;4978065;28;20827;-61
2022/09/23 14:53:21;;;;;;;4.90;4.20;;;23.30;70.30;;;;;;4976021;28;20438;-62
2022/09/23 14:55:50;;;;;;;5.00;4.50;;;23.20;71.70;;;;;;4974732;28;20481;-61
2022/09/23 14:58:19;;;;;;;3.97;3.67;;;23.10;72.10;;;;;;4975468;28;20950;-62
2022/09/23 15:00:52;;;;;;;5.07;4.50;;;23.00;73.00;;;;;;4975458;28;20486;-62
2022/09/23 15:03:19;;;;;;;3.67;3.37;;;22.90;72.90;;;;;;4975229;28;20826;-62
2022/09/23 15:05:48;;;;;;;5.27;3.60;;;22.70;74.70;;;;;;4975531;28;20870;-62
2022/09/23 15:08:20;;;;;;;4.00;3.47;;;22.60;73.60;;;;;;4975102;28;21013;-62
2022/09/23 15:10:47;;;;;;;3.87;3.57;;;22.40;75.00;;;;;;4975438;28;20485;-62
2022/09/23 15:13:17;;;;;;;3.87;3.57;;;22.20;76.50;;;;;;4975401;28;20454;-62
2022/09/23 15:15:44;;;;;;;4.13;3.83;;;22.00;75.50;;;;;;4975509;28;20483;-62
2022/09/23 15:18:18;;;;;;;7.30;4.03;;;21.90;76.50;;;;;;4975359;28;20529;-61
2022/09/23 15:20:51;;;;;;;7.60;3.90;;;21.80;77.40;;;;;;4975350;28;20537;-61
2022/09/23 15:23:35;;;;;;;5.47;3.57;;;21.70;76.20;;;;;;4975396;28;20447;-61
2022/09/23 15:26:06;;;;;;;4.20;3.70;;;21.50;76.70;;;;;;4975345;28;20435;-61
2022/09/23 15:28:32;;;;;;;3.83;3.53;;;21.30;78.30;;;;;;4975292;28;20486;-60
2022/09/23 15:30:59;;;;;;;3.40;3.20;;;21.30;79.00;;;;;;4975471;28;20477;-61
2022/09/23 15:33:28;;;;;;;9.33;3.90;;;21.20;80.30;;;;;;4975425;28;20455;-61
2022/09/23 15:35:55;;;;;;;4.23;3.83;;;21.10;78.90;;;;;;4975398;28;20817;-61
2022/09/23 15:38:22;;;;;;;4.27;3.43;;;21.00;80.70;;;;;;4976047;28;20454;-61
2022/09/23 15:40:50;;;;;;;3.30;3.10;;;20.90;81.30;;;;;;4975400;28;20478;-61
2022/09/23 15:43:19;;;;;;;4.03;3.60;;;20.80;84.10;;;;;;4974663;28;20946;-62
2022/09/23 15:45:51;;;;;;;4.13;3.27;;;20.80;84.50;;;;;;4975134;28;20458;-62
2022/09/23 15:48:21;;;;;;;5.87;3.50;;;20.80;84.30;;;;;;4975489;28;20482;-62
2022/09/23 15:50:49;;;;;;;3.83;3.53;;;20.70;84.00;;;;;;4974564;28;20573;-61
2022/09/23 15:53:18;;;;;;;4.00;3.20;;;20.50;83.80;;;;;;4975603;28;20450;-62
2022/09/23 15:55:45;;;;;;;2.60;2.40;;;20.40;83.80;;;;;;4975756;28;20897;-62
2022/09/23 15:58:13;;;;;;;4.03;3.60;;;20.20;83.80;;;;;;4975289;28;20463;-61
2022/09/23 16:00:40;;;;;;;4.87;3.23;;;20.20;84.50;;;;;;4975004;28;20493;-62
2022/09/23 16:03:06;;;;;;;7.20;3.70;;;20.00;84.30;;;;;;4975446;28;20837;-63
2022/09/23 16:05:36;;;;;;;4.13;3.00;;;20.00;86.20;;;;;;4975175;28;20509;-62
2022/09/23 16:08:03;;;;;;;3.30;3.00;;;19.90;88.40;;;;;;4975690;28;20439;-62
2022/09/23 16:10:31;;;;;;;3.63;3.43;;;19.90;88.40;;;;;;4974778;28;20454;-62
2022/09/23 16:13:00;;;;;;;3.23;2.63;;;19.90;88.90;;;;;;4974776;28;20462;-62
2022/09/23 16:15:30;;;;;;;6.83;3.37;;;19.80;88.70;;;;;;4974697;28;20479;-62
2022/09/23 16:17:58;;;;;;;6.57;3.83;;;19.70;89.60;;;;;;4974768;28;20443;-62
2022/09/23 16:20:28;;;;;;;3.50;3.20;;;19.60;89.00;;;;;;4974766;28;20455;-62
2022/09/23 16:22:58;;;;;;;3.80;3.37;;;19.50;88.80;;;;;;4974979;28;20454;-62
2022/09/23 16:25:28;;;;;;;6.03;3.07;;;19.50;90.10;;;;;;4974457;28;20439;-62
2022/09/23 16:27:56;;;;;;;3.53;3.20;;;19.50;91.40;;;;;;4974302;28;20458;-62
2022/09/23 16:30:23;;;;;;;8.57;3.30;;;19.50;92.00;;;;;;4975319;28;20486;-62
2022/09/23 16:32:51;;;;;;;8.47;6.13;;;19.40;92.70;;;;;;4974276;28;20969;-62
2022/09/23 16:35:18;;;;;;;4.53;4.10;;;19.40;93.00;;;;;;4974611;28;20506;-62
2022/09/23 16:37:45;;;;;;;3.80;3.57;;;19.30;94.10;;;;;;4974768;28;20439;-62
2022/09/23 16:40:15;;;;;;;5.83;3.50;;;19.30;93.90;;;;;;4974710;28;20451;-62
2022/09/23 16:42:45;;;;;;;5.57;3.57;;;19.30;94.70;;;;;;4974455;28;20474;-62
2022/09/23 16:45:12;;;;;;;3.33;2.73;;;19.20;95.70;;;;;;4974584;28;20438;-62
2022/09/23 16:47:43;;;;;;;4.30;3.90;;;19.10;95.40;;;;;;4974452;28;20459;-62
2022/09/23 16:50:11;;;;;;;6.30;3.70;;;19.00;96.50;;;;;;4974520;28;20439;-62